sensor_id;sensor_type;location;lat;lon;timestamp;temperature;humidity
47604;DHT22;33326;51.116;6.900;2022-08-21T00:00:10;20.40;99.90
47604;DHT22;33326;51.116;6.900;2022-08-21T00:05:15;20.30;99.90
47604;DHT22;33326;51.116;6.900;2022-08-21T00:10:18;20.20;99.90
47604;DHT22;33326;51.116;6.900;2022-08-21T00:15:23;20.00;99.90
47604;DHT22;33326;51.116;6.900;2022-08-21T00:20:27;20.10;99.90
47604;DHT22;33326;51.116;6.900;2022-08-21T00:25:30;20.10;99.90
47604;DHT22;33326;51.116;6.900;2022-08-21T00:30:32;20.10;99.90
47604;DHT22;33326;51.116;6.900;2022-08-21T00:35:38;20.20;99.90
47604;DHT22;33326;51.116;6.900;2022-08-21T00:40:43;20.10;99.90
47604;DHT22;33326;51.116;6.900;2022-08-21T00:45:45;20.10;99.90
47604;DHT22;33326;51.116;6.900;2022-08-21T00:50:53;20.00;99.90
47604;DHT22;33326;51.116;6.900;2022-08-21T00:55:57;19.90;99.90
47604;DHT22;33326;51.116;6.900;2022-08-21T01:06:08;19.80;99.90
47604;DHT22;33326;51.116;6.900;2022-08-21T01:11:11;19.80;99.90
47604;DHT22;33326;51.116;6.900;2022-08-21T01:16:16;19.90;99.90
47604;DHT22;33326;51.116;6.900;2022-08-21T01:21:22;19.80;99.90
47604;DHT22;33326;51.116;6.900;2022-08-21T01:26:26;19.60;99.90
47604;DHT22;33326;51.116;6.900;2022-08-21T01:31:29;19.60;99.90
47604;DHT22;33326;51.116;6.900;2022-08-21T01:36:33;19.50;99.90
47604;DHT22;33326;51.116;6.900;2022-08-21T01:41:35;19.50;99.90
47604;DHT22;33326;51.116;6.900;2022-08-21T01:46:37;19.50;99.90
47604;DHT22;33326;51.116;6.900;2022-08-21T01:51:40;19.40;99.90
47604;DHT22;33326;51.116;6.900;2022-08-21T01:56:45;19.40;99.90
47604;DHT22;33326;51.116;6.900;2022-08-21T02:01:47;19.20;99.90
47604;DHT22;33326;51.116;6.900;2022-08-21T02:06:51;19.20;99.90
47604;DHT22;33326;51.116;6.900;2022-08-21T02:11:53;19.20;99.90
47604;DHT22;33326;51.116;6.900;2022-08-21T02:16:55;19.10;99.90
47604;DHT22;33326;51.116;6.900;2022-08-21T02:21:58;19.10;99.90
47604;DHT22;33326;51.116;6.900;2022-08-21T02:26:59;19.10;99.90
47604;DHT22;33326;51.116;6.900;2022-08-21T02:32:01;19.00;99.90
47604;DHT22;33326;51.116;6.900;2022-08-21T02:37:05;18.90;99.90
47604;DHT22;33326;51.116;6.900;2022-08-21T02:42:07;18.80;99.90
47604;DHT22;33326;51.116;6.900;2022-08-21T02:47:08;18.70;99.90
47604;DHT22;33326;51.116;6.900;2022-08-21T02:52:11;18.60;99.90
47604;DHT22;33326;51.116;6.900;2022-08-21T02:57:14;18.50;99.90
47604;DHT22;33326;51.116;6.900;2022-08-21T03:02:16;18.40;99.90
47604;DHT22;33326;51.116;6.900;2022-08-21T03:07:19;18.50;99.90
47604;DHT22;33326;51.116;6.900;2022-08-21T03:12:22;18.60;99.90
47604;DHT22;33326;51.116;6.900;2022-08-21T03:17:24;18.70;99.90
47604;DHT22;33326;51.116;6.900;2022-08-21T03:22:27;18.60;99.90
47604;DHT22;33326;51.116;6.900;2022-08-21T03:27:29;18.70;99.90
47604;DHT22;33326;51.116;6.900;2022-08-21T03:32:31;18.60;99.90
47604;DHT22;33326;51.116;6.900;2022-08-21T03:37:34;18.60;99.90
47604;DHT22;33326;51.116;6.900;2022-08-21T03:42:37;18.40;99.90
47604;DHT22;33326;51.116;6.900;2022-08-21T03:47:38;18.30;99.90
47604;DHT22;33326;51.116;6.900;2022-08-21T03:52:42;18.30;99.90
47604;DHT22;33326;51.116;6.900;2022-08-21T03:57:44;18.30;99.90
47604;DHT22;33326;51.116;6.900;2022-08-21T04:02:46;18.20;99.90
47604;DHT22;33326;51.116;6.900;2022-08-21T04:07:49;18.20;99.90
47604;DHT22;33326;51.116;6.900;2022-08-21T04:12:51;18.20;99.90
47604;DHT22;33326;51.116;6.900;2022-08-21T04:17:53;18.10;99.90
47604;DHT22;33326;51.116;6.900;2022-08-21T04:22:57;18.00;99.90
47604;DHT22;33326;51.116;6.900;2022-08-21T04:27:58;18.00;99.90
47604;DHT22;33326;51.116;6.900;2022-08-21T04:33:02;17.90;99.90
47604;DHT22;33326;51.116;6.900;2022-08-21T04:38:05;17.90;99.90
47604;DHT22;33326;51.116;6.900;2022-08-21T04:43:09;17.50;99.90
47604;DHT22;33326;51.116;6.900;2022-08-21T04:48:12;17.50;99.90
47604;DHT22;33326;51.116;6.900;2022-08-21T04:53:19;17.70;99.90
47604;DHT22;33326;51.116;6.900;2022-08-21T04:58:22;17.80;99.90
47604;DHT22;33326;51.116;6.900;2022-08-21T05:03:26;17.90;99.90
47604;DHT22;33326;51.116;6.900;2022-08-21T05:08:29;17.90;99.90
47604;DHT22;33326;51.116;6.900;2022-08-21T05:13:31;17.90;99.90
47604;DHT22;33326;51.116;6.900;2022-08-21T05:18:33;18.00;99.90
47604;DHT22;33326;51.116;6.900;2022-08-21T05:23:36;17.90;99.90
47604;DHT22;33326;51.116;6.900;2022-08-21T05:28:38;17.90;99.90
47604;DHT22;33326;51.116;6.900;2022-08-21T05:33:40;17.90;99.90
47604;DHT22;33326;51.116;6.900;2022-08-21T05:38:43;18.00;99.90
47604;DHT22;33326;51.116;6.900;2022-08-21T05:43:45;18.00;99.90
47604;DHT22;33326;51.116;6.900;2022-08-21T05:48:47;18.10;99.90
47604;DHT22;33326;51.116;6.900;2022-08-21T05:53:50;18.10;99.90
47604;DHT22;33326;51.116;6.900;2022-08-21T05:58:52;18.20;99.90
47604;DHT22;33326;51.116;6.900;2022-08-21T06:03:53;18.20;99.90
47604;DHT22;33326;51.116;6.900;2022-08-21T06:08:57;18.20;99.90
47604;DHT22;33326;51.116;6.900;2022-08-21T06:13:59;18.30;99.90
47604;DHT22;33326;51.116;6.900;2022-08-21T06:19:01;18.20;99.90
47604;DHT22;33326;51.116;6.900;2022-08-21T06:24:04;18.20;99.90
47604;DHT22;33326;51.116;6.900;2022-08-21T06:29:07;18.20;99.90
47604;DHT22;33326;51.116;6.900;2022-08-21T06:34:10;18.20;99.90
47604;DHT22;33326;51.116;6.900;2022-08-21T06:39:14;18.30;99.90
47604;DHT22;33326;51.116;6.900;2022-08-21T06:44:17;18.50;99.90
47604;DHT22;33326;51.116;6.900;2022-08-21T06:49:19;18.60;99.90
47604;DHT22;33326;51.116;6.900;2022-08-21T06:54:22;18.70;99.90
47604;DHT22;33326;51.116;6.900;2022-08-21T06:59:24;18.80;99.90
47604;DHT22;33326;51.116;6.900;2022-08-21T07:04:26;19.00;99.90
47604;DHT22;33326;51.116;6.900;2022-08-21T07:09:29;19.20;99.90
47604;DHT22;33326;51.116;6.900;2022-08-21T07:14:32;19.20;99.90
47604;DHT22;33326;51.116;6.900;2022-08-21T07:19:34;19.40;99.90
47604;DHT22;33326;51.116;6.900;2022-08-21T07:24:37;19.80;99.90
47604;DHT22;33326;51.116;6.900;2022-08-21T07:29:39;19.70;99.90
47604;DHT22;33326;51.116;6.900;2022-08-21T07:34:41;19.70;99.90
47604;DHT22;33326;51.116;6.900;2022-08-21T07:39:44;20.00;99.90
47604;DHT22;33326;51.116;6.900;2022-08-21T07:44:49;20.10;99.90
47604;DHT22;33326;51.116;6.900;2022-08-21T07:49:50;20.20;99.90
47604;DHT22;33326;51.116;6.900;2022-08-21T07:54:54;20.30;99.90
47604;DHT22;33326;51.116;6.900;2022-08-21T07:59:56;20.40;99.90
47604;DHT22;33326;51.116;6.900;2022-08-21T08:04:59;20.70;99.90
47604;DHT22;33326;51.116;6.900;2022-08-21T08:10:03;21.00;99.90
47604;DHT22;33326;51.116;6.900;2022-08-21T08:15:10;21.10;99.90
47604;DHT22;33326;51.116;6.900;2022-08-21T08:20:14;21.20;99.90
47604;DHT22;33326;51.116;6.900;2022-08-21T08:25:19;21.50;99.90
47604;DHT22;33326;51.116;6.900;2022-08-21T08:30:22;21.90;99.90
47604;DHT22;33326;51.116;6.900;2022-08-21T08:35:24;22.30;99.90
47604;DHT22;33326;51.116;6.900;2022-08-21T08:40:34;22.60;99.40
47604;DHT22;33326;51.116;6.900;2022-08-21T08:45:44;22.70;98.60
47604;DHT22;33326;51.116;6.900;2022-08-21T08:50:52;23.00;97.10
47604;DHT22;33326;51.116;6.900;2022-08-21T08:55:56;23.10;96.20
47604;DHT22;33326;51.116;6.900;2022-08-21T09:00:59;23.60;95.60
47604;DHT22;33326;51.116;6.900;2022-08-21T09:06:06;23.80;95.30
47604;DHT22;33326;51.116;6.900;2022-08-21T09:11:22;24.20;95.40
47604;DHT22;33326;51.116;6.900;2022-08-21T09:16:35;24.60;94.40
47604;DHT22;33326;51.116;6.900;2022-08-21T09:21:49;24.50;93.60
47604;DHT22;33326;51.116;6.900;2022-08-21T09:26:59;24.60;93.60
47604;DHT22;33326;51.116;6.900;2022-08-21T09:32:10;24.80;92.30
47604;DHT22;33326;51.116;6.900;2022-08-21T09:37:17;24.90;92.20
47604;DHT22;33326;51.116;6.900;2022-08-21T09:42:26;24.80;92.00
47604;DHT22;33326;51.116;6.900;2022-08-21T09:47:28;25.10;91.60
47604;DHT22;33326;51.116;6.900;2022-08-21T09:52:31;24.90;91.20
47604;DHT22;33326;51.116;6.900;2022-08-21T09:57:35;24.90;91.60
47604;DHT22;33326;51.116;6.900;2022-08-21T10:02:41;25.10;91.50
47604;DHT22;33326;51.116;6.900;2022-08-21T10:07:43;25.60;91.20
47604;DHT22;33326;51.116;6.900;2022-08-21T10:12:55;26.10;90.80
47604;DHT22;33326;51.116;6.900;2022-08-21T10:18:06;26.80;90.20
47604;DHT22;33326;51.116;6.900;2022-08-21T10:23:29;26.90;89.10
47604;DHT22;33326;51.116;6.900;2022-08-21T10:28:42;27.10;86.30
47604;DHT22;33326;51.116;6.900;2022-08-21T10:33:55;27.50;86.00
47604;DHT22;33326;51.116;6.900;2022-08-21T10:39:07;27.90;86.40
47604;DHT22;33326;51.116;6.900;2022-08-21T10:44:25;27.50;84.80
47604;DHT22;33326;51.116;6.900;2022-08-21T10:49:38;27.80;84.90
47604;DHT22;33326;51.116;6.900;2022-08-21T10:54:41;28.40;83.70
47604;DHT22;33326;51.116;6.900;2022-08-21T10:59:55;28.20;82.40
47604;DHT22;33326;51.116;6.900;2022-08-21T11:05:02;28.00;82.70
47604;DHT22;33326;51.116;6.900;2022-08-21T11:10:13;27.90;83.30
47604;DHT22;33326;51.116;6.900;2022-08-21T11:15:26;28.10;82.50
47604;DHT22;33326;51.116;6.900;2022-08-21T11:20:33;28.00;81.50
47604;DHT22;33326;51.116;6.900;2022-08-21T11:25:38;28.10;81.60
47604;DHT22;33326;51.116;6.900;2022-08-21T11:30:52;29.10;81.50
47604;DHT22;33326;51.116;6.900;2022-08-21T11:36:05;29.60;79.20
47604;DHT22;33326;51.116;6.900;2022-08-21T11:41:20;29.50;78.80
47604;DHT22;33326;51.116;6.900;2022-08-21T11:46:31;29.30;77.10
47604;DHT22;33326;51.116;6.900;2022-08-21T11:51:40;29.30;78.80
47604;DHT22;33326;51.116;6.900;2022-08-21T11:56:47;29.80;77.10
47604;DHT22;33326;51.116;6.900;2022-08-21T12:01:53;29.90;78.20
47604;DHT22;33326;51.116;6.900;2022-08-21T12:06:56;30.00;76.30
47604;DHT22;33326;51.116;6.900;2022-08-21T12:12:03;30.50;76.40
47604;DHT22;33326;51.116;6.900;2022-08-21T12:17:09;31.00;74.10
47604;DHT22;33326;51.116;6.900;2022-08-21T12:22:18;31.20;74.30
47604;DHT22;33326;51.116;6.900;2022-08-21T12:27:23;31.70;74.90
47604;DHT22;33326;51.116;6.900;2022-08-21T12:32:30;32.00;71.70
47604;DHT22;33326;51.116;6.900;2022-08-21T12:37:47;32.30;71.60
47604;DHT22;33326;51.116;6.900;2022-08-21T12:42:52;32.00;71.10
47604;DHT22;33326;51.116;6.900;2022-08-21T12:47:59;31.70;69.80
47604;DHT22;33326;51.116;6.900;2022-08-21T12:53:07;31.70;68.70
47604;DHT22;33326;51.116;6.900;2022-08-21T12:58:17;32.70;70.00
47604;DHT22;33326;51.116;6.900;2022-08-21T13:03:22;33.70;67.60
47604;DHT22;33326;51.116;6.900;2022-08-21T13:08:26;34.10;67.80
47604;DHT22;33326;51.116;6.900;2022-08-21T13:13:29;33.40;66.30
47604;DHT22;33326;51.116;6.900;2022-08-21T13:18:39;34.20;65.20
47604;DHT22;33326;51.116;6.900;2022-08-21T13:23:52;34.90;62.90
47604;DHT22;33326;51.116;6.900;2022-08-21T13:29:06;37.10;64.20
47604;DHT22;33326;51.116;6.900;2022-08-21T13:34:14;37.60;61.30
47604;DHT22;33326;51.116;6.900;2022-08-21T13:39:18;37.80;57.60
47604;DHT22;33326;51.116;6.900;2022-08-21T13:44:23;36.60;57.50
47604;DHT22;33326;51.116;6.900;2022-08-21T13:49:31;37.10;57.60
47604;DHT22;33326;51.116;6.900;2022-08-21T13:54:35;38.00;57.90
47604;DHT22;33326;51.116;6.900;2022-08-21T13:59:37;38.70;57.80
47604;DHT22;33326;51.116;6.900;2022-08-21T14:04:44;40.30;56.00
47604;DHT22;33326;51.116;6.900;2022-08-21T14:09:49;41.10;53.70
47604;DHT22;33326;51.116;6.900;2022-08-21T14:14:51;42.00;51.90
47604;DHT22;33326;51.116;6.900;2022-08-21T14:19:56;41.30;50.70
47604;DHT22;33326;51.116;6.900;2022-08-21T14:25:03;39.80;50.10
47604;DHT22;33326;51.116;6.900;2022-08-21T14:30:11;39.60;50.70
47604;DHT22;33326;51.116;6.900;2022-08-21T14:35:15;40.40;51.10
47604;DHT22;33326;51.116;6.900;2022-08-21T14:40:19;43.00;49.80
47604;DHT22;33326;51.116;6.900;2022-08-21T14:45:26;43.50;48.70
47604;DHT22;33326;51.116;6.900;2022-08-21T14:50:30;42.60;47.50
47604;DHT22;33326;51.116;6.900;2022-08-21T14:55:32;41.30;48.40
47604;DHT22;33326;51.116;6.900;2022-08-21T15:00:56;40.90;48.90
47604;DHT22;33326;51.116;6.900;2022-08-21T15:06:01;39.90;49.80
47604;DHT22;33326;51.116;6.900;2022-08-21T15:11:05;39.60;49.30
47604;DHT22;33326;51.116;6.900;2022-08-21T15:16:09;39.90;50.10
47604;DHT22;33326;51.116;6.900;2022-08-21T15:21:13;41.70;50.00
47604;DHT22;33326;51.116;6.900;2022-08-21T15:26:15;43.00;48.60
47604;DHT22;33326;51.116;6.900;2022-08-21T15:31:17;43.70;47.80
47604;DHT22;33326;51.116;6.900;2022-08-21T15:36:20;42.00;47.70
47604;DHT22;33326;51.116;6.900;2022-08-21T15:41:22;39.90;49.30
47604;DHT22;33326;51.116;6.900;2022-08-21T15:46:24;41.90;49.20
47604;DHT22;33326;51.116;6.900;2022-08-21T15:51:27;40.40;48.30
47604;DHT22;33326;51.116;6.900;2022-08-21T15:56:34;38.90;48.30
47604;DHT22;33326;51.116;6.900;2022-08-21T16:01:37;38.20;49.30
47604;DHT22;33326;51.116;6.900;2022-08-21T16:06:41;38.40;49.80
47604;DHT22;33326;51.116;6.900;2022-08-21T16:11:43;37.80;50.40
47604;DHT22;33326;51.116;6.900;2022-08-21T16:16:45;36.90;50.30
47604;DHT22;33326;51.116;6.900;2022-08-21T16:21:48;36.00;51.30
47604;DHT22;33326;51.116;6.900;2022-08-21T16:26:50;35.60;51.50
47604;DHT22;33326;51.116;6.900;2022-08-21T16:31:52;35.50;51.80
47604;DHT22;33326;51.116;6.900;2022-08-21T16:36:56;34.40;52.20
47604;DHT22;33326;51.116;6.900;2022-08-21T16:42:00;33.70;52.60
47604;DHT22;33326;51.116;6.900;2022-08-21T16:47:03;32.70;53.50
47604;DHT22;33326;51.116;6.900;2022-08-21T16:52:06;31.70;54.90
47604;DHT22;33326;51.116;6.900;2022-08-21T16:57:08;31.20;55.40
47604;DHT22;33326;51.116;6.900;2022-08-21T17:02:20;30.80;55.90
47604;DHT22;33326;51.116;6.900;2022-08-21T17:07:26;30.50;56.90
47604;DHT22;33326;51.116;6.900;2022-08-21T17:12:27;30.00;56.50
47604;DHT22;33326;51.116;6.900;2022-08-21T17:17:29;29.60;57.20
47604;DHT22;33326;51.116;6.900;2022-08-21T17:22:32;29.10;57.50
47604;DHT22;33326;51.116;6.900;2022-08-21T17:27:35;28.80;57.80
47604;DHT22;33326;51.116;6.900;2022-08-21T17:32:37;28.70;57.70
47604;DHT22;33326;51.116;6.900;2022-08-21T17:37:40;28.50;57.60
47604;DHT22;33326;51.116;6.900;2022-08-21T17:42:43;28.50;58.00
47604;DHT22;33326;51.116;6.900;2022-08-21T17:47:46;28.30;58.00
47604;DHT22;33326;51.116;6.900;2022-08-21T17:52:49;28.30;57.70
47604;DHT22;33326;51.116;6.900;2022-08-21T17:57:51;27.90;58.10
47604;DHT22;33326;51.116;6.900;2022-08-21T18:02:59;27.80;58.30
47604;DHT22;33326;51.116;6.900;2022-08-21T18:08:03;27.70;59.30
47604;DHT22;33326;51.116;6.900;2022-08-21T18:13:06;27.40;59.40
47604;DHT22;33326;51.116;6.900;2022-08-21T18:18:09;27.20;59.80
47604;DHT22;33326;51.116;6.900;2022-08-21T18:23:12;27.00;60.50
47604;DHT22;33326;51.116;6.900;2022-08-21T18:28:15;27.10;61.10
47604;DHT22;33326;51.116;6.900;2022-08-21T18:33:17;27.00;60.90
47604;DHT22;33326;51.116;6.900;2022-08-21T18:38:21;26.80;61.00
47604;DHT22;33326;51.116;6.900;2022-08-21T18:43:23;26.60;61.60
47604;DHT22;33326;51.116;6.900;2022-08-21T18:48:25;26.40;61.80
47604;DHT22;33326;51.116;6.900;2022-08-21T18:53:28;26.30;62.20
47604;DHT22;33326;51.116;6.900;2022-08-21T18:58:30;26.20;63.00
47604;DHT22;33326;51.116;6.900;2022-08-21T19:03:32;26.20;62.80
47604;DHT22;33326;51.116;6.900;2022-08-21T19:08:35;26.00;62.70
47604;DHT22;33326;51.116;6.900;2022-08-21T19:13:37;25.90;63.00
47604;DHT22;33326;51.116;6.900;2022-08-21T19:18:40;25.90;63.40
47604;DHT22;33326;51.116;6.900;2022-08-21T19:23:43;25.80;63.20
47604;DHT22;33326;51.116;6.900;2022-08-21T19:28:49;25.80;64.20
47604;DHT22;33326;51.116;6.900;2022-08-21T19:33:54;25.70;63.90
47604;DHT22;33326;51.116;6.900;2022-08-21T19:39:01;25.50;64.30
47604;DHT22;33326;51.116;6.900;2022-08-21T19:44:04;25.40;64.70
47604;DHT22;33326;51.116;6.900;2022-08-21T19:49:12;25.40;64.80
47604;DHT22;33326;51.116;6.900;2022-08-21T19:54:22;25.40;65.70
47604;DHT22;33326;51.116;6.900;2022-08-21T19:59:25;25.40;65.80
47604;DHT22;33326;51.116;6.900;2022-08-21T20:04:27;25.20;65.80
47604;DHT22;33326;51.116;6.900;2022-08-21T20:09:30;25.10;65.70
47604;DHT22;33326;51.116;6.900;2022-08-21T20:14:33;25.20;66.10
47604;DHT22;33326;51.116;6.900;2022-08-21T20:19:37;25.10;66.10
47604;DHT22;33326;51.116;6.900;2022-08-21T20:24:40;25.20;66.50
47604;DHT22;33326;51.116;6.900;2022-08-21T20:29:42;25.30;66.70
47604;DHT22;33326;51.116;6.900;2022-08-21T20:34:44;25.20;66.70
47604;DHT22;33326;51.116;6.900;2022-08-21T20:39:48;25.20;66.70
47604;DHT22;33326;51.116;6.900;2022-08-21T20:44:53;25.00;67.10
47604;DHT22;33326;51.116;6.900;2022-08-21T20:49:59;24.80;67.20
47604;DHT22;33326;51.116;6.900;2022-08-21T20:55:09;24.80;67.30
47604;DHT22;33326;51.116;6.900;2022-08-21T21:00:15;24.70;68.00
47604;DHT22;33326;51.116;6.900;2022-08-21T21:05:20;24.60;67.60
47604;DHT22;33326;51.116;6.900;2022-08-21T21:10:29;24.60;67.60
47604;DHT22;33326;51.116;6.900;2022-08-21T21:15:32;24.40;68.30
47604;DHT22;33326;51.116;6.900;2022-08-21T21:20:38;24.10;68.30
47604;DHT22;33326;51.116;6.900;2022-08-21T21:25:47;24.20;68.80
47604;DHT22;33326;51.116;6.900;2022-08-21T21:30:49;24.10;68.70
47604;DHT22;33326;51.116;6.900;2022-08-21T21:35:54;24.10;69.20
47604;DHT22;33326;51.116;6.900;2022-08-21T21:41:07;24.00;69.50
47604;DHT22;33326;51.116;6.900;2022-08-21T21:46:23;24.00;69.90
47604;DHT22;33326;51.116;6.900;2022-08-21T21:51:44;23.90;70.30
47604;DHT22;33326;51.116;6.900;2022-08-21T21:56:56;23.70;70.70
47604;DHT22;33326;51.116;6.900;2022-08-21T22:02:05;23.60;71.40
47604;DHT22;33326;51.116;6.900;2022-08-21T22:07:13;23.60;71.40
47604;DHT22;33326;51.116;6.900;2022-08-21T22:12:34;23.50;71.90
47604;DHT22;33326;51.116;6.900;2022-08-21T22:17:43;23.30;72.90
47604;DHT22;33326;51.116;6.900;2022-08-21T22:22:47;23.30;72.50
47604;DHT22;33326;51.116;6.900;2022-08-21T22:27:56;23.30;72.40
47604;DHT22;33326;51.116;6.900;2022-08-21T22:33:00;23.30;73.30
47604;DHT22;33326;51.116;6.900;2022-08-21T22:38:26;23.20;73.20
47604;DHT22;33326;51.116;6.900;2022-08-21T22:43:30;23.30;74.20
47604;DHT22;33326;51.116;6.900;2022-08-21T22:48:34;23.20;74.00
47604;DHT22;33326;51.116;6.900;2022-08-21T22:53:41;23.10;74.50
47604;DHT22;33326;51.116;6.900;2022-08-21T22:58:54;23.10;74.70
47604;DHT22;33326;51.116;6.900;2022-08-21T23:04:08;23.20;75.20
47604;DHT22;33326;51.116;6.900;2022-08-21T23:09:18;23.10;75.00
47604;DHT22;33326;51.116;6.900;2022-08-21T23:14:23;23.20;76.10
47604;DHT22;33326;51.116;6.900;2022-08-21T23:19:35;23.10;75.80
47604;DHT22;33326;51.116;6.900;2022-08-21T23:24:52;23.00;76.30
47604;DHT22;33326;51.116;6.900;2022-08-21T23:30:04;23.00;77.30
47604;DHT22;33326;51.116;6.900;2022-08-21T23:35:13;22.90;77.30
47604;DHT22;33326;51.116;6.900;2022-08-21T23:40:37;22.80;78.10
47604;DHT22;33326;51.116;6.900;2022-08-21T23:45:53;22.80;78.70
47604;DHT22;33326;51.116;6.900;2022-08-21T23:51:01;22.60;78.80
47604;DHT22;33326;51.116;6.900;2022-08-21T23:56:14;22.50;79.30
